Time;durP1;ratioP1;P1;durP2;ratioP2;P2;SDS_P1;SDS_P2;PMS_P1;PMS_P2;Temp;Humidity;BMP_temperature;BMP_pressure;BME280_temperature;BME280_humidity;BME280_pressure;Samples;Min_cycle;Max_cycle;Signal;HPM_P1;HPM_P2
2023/12/20 00:02:30;;;;;;;23.10;14.23;;;;;;;7.90;100.00;100902.53;4921922;29;20101;-84
2023/12/20 00:16:22;;;;;;;21.77;13.93;;;;;;;7.86;100.00;100910.75;4827945;29;20505;-81
2023/12/20 00:19:02;;;;;;;17.63;11.38;;;;;;;7.92;100.00;100933.66;4751634;30;20092;-84
2023/12/20 00:25:08;;;;;;;16.95;10.85;;;;;;;7.71;100.00;100914.66;4949768;28;20113;-82
2023/12/20 00:28:02;;;;;;;12.95;8.52;;;;;;;7.77;100.00;100929.75;4969157;28;20066;-83
2023/12/20 00:30:36;;;;;;;;;;;;;;;7.77;100.00;100932.34;4964411;28;20051;-85
2023/12/20 00:33:15;;;;;;;12.35;8.68;;;;;;;7.77;100.00;100922.75;4969453;28;19911;-88
2023/12/20 00:35:52;;;;;;;14.00;9.57;;;;;;;7.59;100.00;100899.09;4972674;28;20243;-82
2023/12/20 00:41:57;;;;;;;13.45;8.93;;;;;;;7.66;100.00;100926.28;4906726;29;20143;-81
2023/12/20 00:45:34;;;;;;;;;;;;;;;;;;;;;
2023/12/20 00:52:04;;;;;;;14.55;9.05;;;;;;;7.63;100.00;100949.16;4943460;28;20577;-82
2023/12/20 00:57:52;;;;;;;15.55;9.07;;;;;;;7.57;100.00;100934.84;4899333;29;20552;-79
2023/12/20 01:01:08;;;;;;;20.17;10.65;;;;;;;7.59;100.00;100935.56;4951916;29;20055;-81
2023/12/20 01:06:55;;;;;;;17.13;10.80;;;;;;;7.54;100.00;100929.13;4953756;29;20106;-81
2023/12/20 01:09:50;;;;;;;20.40;11.73;;;;;;;7.43;100.00;100921.38;4953453;29;20514;-84
2023/12/20 01:53:28;;;;;;;31.25;17.05;;;;;;;7.06;100.00;100936.63;4904408;29;20076;-83
2023/12/20 01:55:59;;;;;;;30.48;14.75;;;;;;;7.07;100.00;100957.31;4969762;23;20157;-83
2023/12/20 01:58:27;;;;;;;26.40;13.68;;;;;;;7.01;100.00;100955.22;4967134;28;20086;-83
2023/12/20 02:00:55;;;;;;;25.38;12.63;;;;;;;6.70;100.00;100941.25;4985618;28;20070;-82
2023/12/20 02:03:22;;;;;;;26.63;12.52;;;;;;;6.66;100.00;100950.25;4974840;28;20578;-83
2023/12/20 02:05:49;;;;;;;33.45;12.85;;;;;;;6.55;100.00;100953.72;4975020;28;20134;-82
2023/12/20 02:08:15;;;;;;;31.35;12.43;;;;;;;6.46;100.00;100948.41;4975630;28;20114;-83
2023/12/20 02:10:42;;;;;;;24.42;11.82;;;;;;;6.39;100.00;100948.06;4978360;28;20110;-83
2023/12/20 02:13:10;;;;;;;21.70;10.68;;;;;;;6.38;100.00;100962.00;4975036;28;20449;-83
2023/12/20 02:15:37;;;;;;;16.50;8.35;;;;;;;6.33;100.00;100967.56;4972716;28;20134;-83
2023/12/20 02:18:05;;;;;;;24.95;8.07;;;;;;;6.28;100.00;100972.31;4975541;28;20050;-83
2023/12/20 02:20:31;;;;;;;21.65;7.85;;;;;;;6.15;100.00;100965.56;4976274;28;20561;-84
2023/12/20 02:22:59;;;;;;;23.33;7.72;;;;;;;6.18;100.00;100955.78;4977022;28;20143;-83
2023/12/20 02:25:26;;;;;;;21.55;7.50;;;;;;;6.16;100.00;100962.03;4975324;28;20055;-83
2023/12/20 02:27:53;;;;;;;18.50;7.00;;;;;;;6.09;100.00;100956.50;4982872;28;20476;-83
2023/12/20 02:30:20;;;;;;;19.92;6.93;;;;;;;6.01;100.00;100973.63;4988662;28;20075;-84
2023/12/20 02:32:46;;;;;;;19.33;6.78;;;;;;;6.03;100.00;100985.56;4977759;28;20043;-84
2023/12/20 02:35:13;;;;;;;24.92;6.43;;;;;;;5.97;100.00;100991.22;4991259;28;20058;-84
2023/12/20 02:37:39;;;;;;;19.73;6.07;;;;;;;5.94;100.00;100983.66;4998763;28;20051;-84
2023/12/20 02:40:08;;;;;;;20.05;5.63;;;;;;;5.95;100.00;100990.50;4985881;28;20078;-83
2023/12/20 02:42:35;;;;;;;19.08;5.60;;;;;;;5.95;100.00;100991.34;4980198;28;20513;-83
2023/12/20 02:45:01;;;;;;;15.25;5.22;;;;;;;6.04;100.00;100989.81;4979035;28;20113;-83
2023/12/20 02:47:29;;;;;;;19.55;5.85;;;;;;;6.14;100.00;100995.97;4978339;28;20050;-83
2023/12/20 02:49:56;;;;;;;18.45;5.47;;;;;;;6.16;100.00;100991.44;4982218;28;20058;-82
2023/12/20 02:52:24;;;;;;;28.98;8.00;;;;;;;6.27;100.00;100988.84;4986593;28;20085;-83
2023/12/20 02:54:51;;;;;;;22.35;5.97;;;;;;;6.24;100.00;100986.47;4979127;28;20584;-83
2023/12/20 02:57:19;;;;;;;18.00;6.05;;;;;;;6.29;100.00;100997.34;4971989;28;20124;-84
2023/12/20 02:59:46;;;;;;;24.73;7.55;;;;;;;6.28;100.00;100992.25;4968638;28;20055;-84
2023/12/20 03:02:12;;;;;;;22.65;8.38;;;;;;;6.36;100.00;100999.47;4978809;28;20047;-84
2023/12/20 03:04:39;;;;;;;21.45;6.80;;;;;;;6.37;100.00;100998.53;4974067;28;20150;-83
2023/12/20 03:07:06;;;;;;;16.73;5.97;;;;;;;6.40;100.00;100993.91;4962799;28;20101;-84
2023/12/20 03:09:33;;;;;;;30.25;7.20;;;;;;;6.42;100.00;100983.41;4993341;28;20055;-84
2023/12/20 03:12:00;;;;;;;18.42;6.82;;;;;;;6.37;100.00;100988.13;4980916;28;20051;-86
2023/12/20 03:14:28;;;;;;;20.38;6.50;;;;;;;6.42;100.00;100986.00;4969324;28;20110;-85
2023/12/20 03:16:55;;;;;;;23.88;6.93;;;;;;;6.38;100.00;100976.78;4976326;28;20071;-82
2023/12/20 03:19:25;;;;;;;27.17;6.72;;;;;;;6.42;100.00;100975.59;4969306;28;20055;-84
2023/12/20 03:21:53;;;;;;;28.92;7.82;;;;;;;6.34;100.00;100971.00;4961688;28;20074;-85
2023/12/20 03:24:20;;;;;;;20.42;6.43;;;;;;;6.36;100.00;100968.28;4983756;28;20051;-85
2023/12/20 03:26:46;;;;;;;23.60;7.07;;;;;;;6.35;100.00;100982.22;4979534;28;20078;-85
2023/12/20 03:29:14;;;;;;;25.70;7.55;;;;;;;6.39;100.00;100978.44;4981167;28;20084;-85
2023/12/20 03:31:42;;;;;;;20.45;6.47;;;;;;;6.44;100.00;100976.31;4981589;28;20057;-85
2023/12/20 03:34:10;;;;;;;20.75;6.72;;;;;;;6.39;100.00;100973.25;4974349;28;20047;-85
2023/12/20 03:36:37;;;;;;;20.02;7.20;;;;;;;6.43;100.00;100974.66;4979785;28;20102;-84
2023/12/20 03:39:05;;;;;;;23.98;7.22;;;;;;;6.42;100.00;100967.81;4981058;28;20091;-84
2023/12/20 03:41:32;;;;;;;19.80;6.95;;;;;;;6.40;100.00;100972.28;4980413;28;20054;-85
2023/12/20 03:43:59;;;;;;;18.10;7.32;;;;;;;6.44;100.00;100981.50;4981547;28;20074;-85
2023/12/20 03:46:28;;;;;;;27.90;7.55;;;;;;;6.49;100.00;100967.19;4963458;28;20130;-85
2023/12/20 03:48:56;;;;;;;25.58;8.70;;;;;;;6.47;100.00;100966.50;4980785;28;20110;-85
2023/12/20 03:51:23;;;;;;;23.33;6.88;;;;;;;6.35;100.00;100966.63;4963998;28;20551;-85
2023/12/20 03:53:49;;;;;;;17.88;6.93;;;;;;;6.34;100.00;100973.59;4963588;28;20150;-84
2023/12/20 03:56:18;;;;;;;22.65;6.63;;;;;;;6.45;100.00;100967.56;4978975;28;20150;-84
2023/12/20 03:58:45;;;;;;;25.55;7.90;;;;;;;6.33;100.00;100964.97;4964390;28;20130;-84
2023/12/20 04:01:12;;;;;;;22.65;7.32;;;;;;;6.28;100.00;100961.09;4981369;28;20054;-84
2023/12/20 04:03:40;;;;;;;17.02;6.97;;;;;;;6.26;100.00;100958.59;4986800;28;20061;-84
2023/12/20 04:06:08;;;;;;;22.75;6.65;;;;;;;6.26;100.00;100962.97;4966368;28;20055;-85
2023/12/20 04:08:35;;;;;;;19.50;7.00;;;;;;;6.27;100.00;100962.84;4981766;28;20058;-84
2023/12/20 04:11:01;;;;;;;16.80;6.85;;;;;;;6.23;100.00;100960.59;4979290;28;20433;-84
2023/12/20 04:13:28;;;;;;;16.67;6.82;;;;;;;6.24;100.00;100954.47;4964194;28;20138;-84
2023/12/20 04:15:54;;;;;;;17.92;6.35;;;;;;;6.28;100.00;100968.88;4973177;28;20129;-84
2023/12/20 04:18:24;;;;;;;20.70;6.80;;;;;;;6.19;100.00;100962.63;4982668;28;20043;-84
2023/12/20 04:20:51;;;;;;;19.52;6.30;;;;;;;6.20;100.00;100963.44;4982410;28;20093;-84
2023/12/20 04:23:19;;;;;;;26.50;7.10;;;;;;;6.18;100.00;100960.97;4961761;28;20043;-84
2023/12/20 04:25:46;;;;;;;19.88;7.35;;;;;;;6.24;100.00;100957.06;4962019;28;20047;-84
2023/12/20 04:28:13;;;;;;;25.27;7.85;;;;;;;6.14;100.00;100954.38;4964341;28;20403;-84
2023/12/20 04:30:39;;;;;;;18.25;6.70;;;;;;;6.06;100.00;100958.53;4983214;28;20066;-84
2023/12/20 04:33:06;;;;;;;18.42;6.97;;;;;;;6.10;100.00;100962.53;4984852;28;20114;-84
2023/12/20 04:35:32;;;;;;;17.23;6.80;;;;;;;6.01;100.00;100958.88;4983028;28;20063;-84
2023/12/20 04:37:59;;;;;;;21.10;7.38;;;;;;;6.02;100.00;100960.53;4983784;28;20111;-84
2023/12/20 04:40:27;;;;;;;25.20;8.05;;;;;;;5.93;100.00;100964.66;4977378;28;20142;-84
2023/12/20 04:42:54;;;;;;;18.27;7.43;;;;;;;5.88;100.00;100973.72;4995847;28;20078;-83
2023/12/20 04:45:20;;;;;;;18.48;7.30;;;;;;;5.94;100.00;100981.06;4987618;28;20051;-82
2023/12/20 04:47:46;;;;;;;17.45;7.20;;;;;;;5.89;100.00;100980.59;4974410;28;20047;-83
2023/12/20 04:50:14;;;;;;;17.92;7.95;;;;;;;5.87;100.00;100977.25;4962246;28;20058;-82
2023/12/20 04:52:41;;;;;;;21.55;7.88;;;;;;;5.90;100.00;100975.28;4959996;28;20432;-83
2023/12/20 04:55:08;;;;;;;15.25;7.00;;;;;;;5.87;100.00;100972.06;4955946;28;20055;-81
2023/12/20 04:57:36;;;;;;;13.77;7.13;;;;;;;5.88;100.00;100977.13;4955277;28;20047;-80
2023/12/20 05:00:03;;;;;;;21.00;6.63;;;;;;;5.87;100.00;100969.47;4969802;28;20085;-83
2023/12/20 05:02:31;;;;;;;21.08;6.93;;;;;;;5.80;100.00;100973.47;4974718;28;20051;-83
2023/12/20 05:04:57;;;;;;;18.67;6.55;;;;;;;5.77;100.00;100977.13;4980150;28;20119;-82
2023/12/20 05:07:24;;;;;;;18.85;6.80;;;;;;;5.76;100.00;100969.44;4976633;28;20130;-83
2023/12/20 05:09:51;;;;;;;20.67;7.05;;;;;;;5.80;100.00;100965.66;4962510;28;20111;-83
2023/12/20 05:12:17;;;;;;;18.42;7.03;;;;;;;5.80;100.00;100971.69;4983507;28;20073;-83
2023/12/20 05:14:45;;;;;;;19.95;7.78;;;;;;;5.77;100.00;100965.91;4975233;28;20079;-83
2023/12/20 05:17:12;;;;;;;23.05;7.78;;;;;;;5.67;100.00;100964.00;4963151;28;20116;-85
2023/12/20 05:19:38;;;;;;;20.65;6.97;;;;;;;5.81;100.00;100965.56;4980333;28;20047;-83
2023/12/20 05:22:05;;;;;;;17.25;6.75;;;;;;;5.81;100.00;100972.53;4984233;28;20078;-83
2023/12/20 05:24:32;;;;;;;24.45;7.85;;;;;;;5.84;100.00;100974.88;4975057;28;20051;-83
2023/12/20 05:26:58;;;;;;;17.98;7.38;;;;;;;5.73;100.00;100959.28;4980130;28;20062;-82
2023/12/20 05:29:25;;;;;;;28.50;8.05;;;;;;;5.66;100.00;100977.13;4975486;28;20047;-83
2023/12/20 05:31:54;;;;;;;22.30;8.07;;;;;;;5.61;100.00;100961.91;4960986;28;20094;-84
2023/12/20 05:34:24;;;;;;;22.35;6.97;;;;;;;5.54;100.00;100958.09;4965649;28;20098;-83
2023/12/20 05:36:58;;;;;;;29.13;7.47;;;;;;;5.54;100.00;100965.91;4960084;28;20050;-83
2023/12/20 05:39:30;;;;;;;20.38;7.32;;;;;;;5.53;100.00;100968.59;4972394;28;20047;-83
2023/12/20 05:41:57;;;;;;;23.77;7.50;;;;;;;5.54;100.00;100976.28;4979375;28;20498;-81
2023/12/20 05:44:24;;;;;;;20.17;6.88;;;;;;;5.55;100.00;100977.09;4978968;28;20054;-81
2023/12/20 05:46:57;;;;;;;17.02;6.20;;;;;;;5.65;100.00;100975.47;4971717;28;20125;-82
2023/12/20 05:49:23;;;;;;;19.88;6.07;;;;;;;5.71;100.00;100966.38;4967366;28;20541;-82
2023/12/20 05:51:51;;;;;;;25.90;6.25;;;;;;;5.80;100.00;100965.66;4971791;28;20117;-82
2023/12/20 05:54:18;;;;;;;23.70;6.55;;;;;;;5.75;100.00;100972.97;4979589;28;20133;-83
2023/12/20 05:56:44;;;;;;;18.20;6.20;;;;;;;5.79;100.00;100975.22;4979081;28;20078;-84
2023/12/20 05:59:11;;;;;;;24.67;9.27;;;;;;;5.79;100.00;100974.41;4963013;28;20111;-83
2023/12/20 06:01:38;;;;;;;27.08;8.80;;;;;;;5.79;100.00;100984.78;4961698;28;20406;-82
2023/12/20 06:04:08;;;;;;;18.58;6.15;;;;;;;5.79;100.00;100972.63;4975665;28;20047;-83
2023/12/20 06:06:35;;;;;;;22.25;6.53;;;;;;;5.88;100.00;100981.50;4969733;28;20106;-82
2023/12/20 06:09:02;;;;;;;27.02;7.45;;;;;;;5.84;100.00;100978.31;4976889;28;20054;-83
2023/12/20 06:11:29;;;;;;;23.00;7.13;;;;;;;5.92;100.00;100981.19;4978574;28;20511;-83
2023/12/20 06:13:56;;;;;;;17.88;6.65;;;;;;;5.90;100.00;100977.06;4964124;28;20055;-83
2023/12/20 06:16:22;;;;;;;21.83;6.85;;;;;;;5.94;100.00;100981.06;4957964;28;20047;-83
2023/12/20 06:18:49;;;;;;;23.30;6.45;;;;;;;6.00;100.00;100978.00;4958696;28;20143;-84
2023/12/20 06:21:20;;;;;;;32.08;9.02;;;;;;;5.99;100.00;100979.78;4956971;28;20102;-83
2023/12/20 06:23:46;;;;;;;27.02;7.95;;;;;;;6.05;100.00;100986.28;4969724;28;20055;-83
2023/12/20 06:26:13;;;;;;;30.70;6.57;;;;;;;6.12;100.00;100997.84;4966226;28;20231;-83
2023/12/20 06:28:40;;;;;;;24.60;6.07;;;;;;;6.07;100.00;100996.53;4972952;28;20122;-84
2023/12/20 06:31:06;;;;;;;23.13;6.22;;;;;;;6.08;100.00;100986.03;4981295;28;20047;-82
2023/12/20 06:33:33;;;;;;;21.25;7.28;;;;;;;6.09;100.00;100984.25;4976518;28;20047;-82
2023/12/20 06:36:00;;;;;;;21.13;6.35;;;;;;;6.18;100.00;100984.34;4975843;28;20113;-84
2023/12/20 06:38:28;;;;;;;25.38;6.85;;;;;;;6.17;100.00;100980.09;4966528;28;20055;-83
2023/12/20 06:40:57;;;;;;;17.75;5.53;;;;;;;6.19;100.00;100978.22;4968941;28;20251;-81
2023/12/20 06:43:23;;;;;;;20.40;6.50;;;;;;;6.19;100.00;100977.38;4963371;28;20066;-81
2023/12/20 06:45:50;;;;;;;24.55;5.80;;;;;;;6.28;100.00;100993.09;4964758;28;20513;-82
2023/12/20 06:48:17;;;;;;;18.02;5.53;;;;;;;6.28;100.00;100982.69;4975414;28;20071;-81
2023/12/20 06:50:44;;;;;;;18.73;5.63;;;;;;;6.32;100.00;100986.72;4962924;28;20624;-82
2023/12/20 06:53:10;;;;;;;16.92;5.88;;;;;;;6.30;100.00;100987.78;4972283;28;20058;-82
2023/12/20 06:55:39;;;;;;;24.85;5.90;;;;;;;6.36;100.00;100978.69;4955339;28;20313;-82
2023/12/20 06:58:06;;;;;;;13.32;5.70;;;;;;;6.32;100.00;100972.88;4955958;28;20131;-82
2023/12/20 07:00:33;;;;;;;20.13;6.25;;;;;;;6.35;100.00;100977.03;4957040;28;20051;-81
2023/12/20 07:03:00;;;;;;;19.98;6.10;;;;;;;6.31;100.00;100961.66;4978446;28;20074;-81
2023/12/20 07:05:27;;;;;;;18.67;5.65;;;;;;;6.41;100.00;100972.16;4963013;28;20125;-82
2023/12/20 07:07:53;;;;;;;21.50;6.65;;;;;;;6.44;100.00;100978.91;4969364;28;20112;-82
2023/12/20 07:10:20;;;;;;;23.60;5.97;;;;;;;6.43;100.00;100972.06;4955367;28;20087;-82
2023/12/20 07:12:49;;;;;;;16.83;5.95;;;;;;;6.37;100.00;100977.72;4962468;28;20083;-82
2023/12/20 07:15:16;;;;;;;20.45;6.13;;;;;;;6.40;100.00;100977.50;4964950;28;20142;-82
2023/12/20 07:17:43;;;;;;;24.63;6.40;;;;;;;6.40;100.00;100972.28;4957175;28;20050;-81
2023/12/20 07:20:11;;;;;;;17.90;6.57;;;;;;;6.44;100.00;100976.31;4960917;28;20115;-80
2023/12/20 07:22:37;;;;;;;20.40;6.88;;;;;;;6.40;100.00;100980.09;4977471;28;20054;-81
2023/12/20 07:25:05;;;;;;;21.88;6.85;;;;;;;6.43;100.00;100974.66;4976407;28;20070;-80
2023/12/20 07:27:31;;;;;;;20.27;7.07;;;;;;;6.32;100.00;100968.53;4959442;28;20043;-81
2023/12/20 07:29:59;;;;;;;21.48;6.35;;;;;;;6.33;100.00;100970.16;4977204;28;20075;-82
2023/12/20 07:32:27;;;;;;;24.20;7.07;;;;;;;6.36;100.00;100971.72;4969981;28;20145;-82
2023/12/20 07:34:53;;;;;;;30.08;7.70;;;;;;;6.37;100.00;100980.34;4979703;28;20609;-82
2023/12/20 07:37:20;;;;;;;24.95;7.38;;;;;;;6.30;100.00;100965.22;4979558;28;20101;-81
2023/12/20 07:39:47;;;;;;;25.90;9.23;;;;;;;6.37;100.00;100964.72;4981607;28;20054;-81
2023/12/20 07:42:14;;;;;;;20.45;7.03;;;;;;;6.36;100.00;100956.09;4968047;28;20138;-81
2023/12/20 07:44:41;;;;;;;27.58;7.07;;;;;;;6.41;100.00;100971.34;4980594;28;20055;-81
2023/12/20 07:47:09;;;;;;;22.27;7.22;;;;;;;6.39;100.00;100970.63;4980538;28;20053;-81
2023/12/20 07:49:35;;;;;;;17.75;7.32;;;;;;;6.39;100.00;100975.84;4981300;28;20065;-81
2023/12/20 07:52:02;;;;;;;18.58;8.70;;;;;;;6.40;100.00;100972.28;4973773;28;20070;-82
2023/12/20 07:54:29;;;;;;;20.15;7.22;;;;;;;6.38;100.00;100975.00;4966276;28;20061;-81
2023/12/20 07:56:58;;;;;;;22.52;6.63;;;;;;;6.42;100.00;100989.41;4980483;28;20115;-80
2023/12/20 07:59:25;;;;;;;22.75;7.43;;;;;;;6.43;100.00;100995.44;4981517;28;20100;-81
2023/12/20 08:01:51;;;;;;;20.13;7.60;;;;;;;6.43;100.00;100969.47;4976341;28;20051;-81
2023/12/20 08:04:19;;;;;;;16.45;6.68;;;;;;;6.39;100.00;100981.03;4972542;28;20050;-82
2023/12/20 08:06:46;;;;;;;21.83;7.57;;;;;;;6.40;100.00;100972.28;4980815;28;20047;-82
2023/12/20 08:09:12;;;;;;;20.33;7.60;;;;;;;6.37;100.00;100975.13;4962358;28;20051;-82
2023/12/20 08:11:39;;;;;;;25.88;7.20;;;;;;;6.35;100.00;100977.84;4975435;28;20051;-82
2023/12/20 08:14:06;;;;;;;20.95;7.85;;;;;;;6.27;100.00;100973.25;4982982;28;20110;-80
2023/12/20 08:16:32;;;;;;;21.05;7.45;;;;;;;6.26;100.00;100979.41;4986697;28;20445;-82
2023/12/20 08:18:59;;;;;;;21.88;7.63;;;;;;;6.25;100.00;100972.53;4967973;28;20097;-80
2023/12/20 08:21:27;;;;;;;21.30;7.55;;;;;;;6.23;100.00;100969.22;4980738;28;20083;-80
2023/12/20 08:23:54;;;;;;;20.63;7.07;;;;;;;6.23;100.00;100971.84;4963289;28;20142;-80
2023/12/20 08:26:22;;;;;;;22.48;7.45;;;;;;;6.22;100.00;100971.94;4973229;28;20058;-80
2023/12/20 08:28:49;;;;;;;30.30;7.82;;;;;;;6.25;100.00;100969.13;4974584;28;20105;-81
2023/12/20 08:31:16;;;;;;;19.25;6.70;;;;;;;6.28;100.00;100977.50;4980861;28;20066;-80
2023/12/20 08:33:44;;;;;;;19.77;7.63;;;;;;;6.23;100.00;100968.41;4980107;28;20052;-82
2023/12/20 08:36:11;;;;;;;18.20;7.28;;;;;;;6.29;100.00;100973.97;4960108;28;20110;-80
2023/12/20 08:38:39;;;;;;;22.60;6.57;;;;;;;6.26;100.00;100963.81;4966710;28;20047;-81
2023/12/20 08:41:06;;;;;;;25.70;7.03;;;;;;;6.33;100.00;100980.56;4979877;28;20078;-82
2023/12/20 08:43:33;;;;;;;18.58;6.07;;;;;;;6.40;100.00;100986.13;4971541;28;20133;-81
2023/12/20 08:45:59;;;;;;;21.55;6.30;;;;;;;6.42;100.00;100983.41;4983337;28;20477;-81
2023/12/20 08:48:26;;;;;;;22.08;6.18;;;;;;;6.48;100.00;100993.31;4991350;28;20081;-84
2023/12/20 08:50:53;;;;;;;16.63;6.00;;;;;;;6.52;100.00;100999.94;4987172;28;20046;-82
2023/12/20 08:53:19;;;;;;;21.38;6.70;;;;;;;6.54;100.00;100996.25;4961953;28;20137;-83
2023/12/20 08:55:47;;;;;;;19.95;5.80;;;;;;;6.54;100.00;100993.66;4961157;28;20058;-82
2023/12/20 08:58:14;;;;;;;15.93;6.70;;;;;;;6.62;100.00;101001.66;4961004;28;20093;-82
2023/12/20 09:00:41;;;;;;;22.98;6.15;;;;;;;6.55;100.00;100994.50;4975221;28;20077;-82
2023/12/20 09:03:08;;;;;;;16.33;5.68;;;;;;;6.67;100.00;101003.91;4983003;28;20106;-81
2023/12/20 09:05:34;;;;;;;19.40;6.53;;;;;;;6.65;100.00;101006.63;4960746;28;20082;-80
2023/12/20 09:08:01;;;;;;;20.45;6.40;;;;;;;6.58;100.00;101002.06;4960867;28;20473;-80
2023/12/20 09:10:28;;;;;;;18.20;6.05;;;;;;;6.54;100.00;100993.66;4973296;28;20082;-81
2023/12/20 09:12:58;;;;;;;15.77;6.18;;;;;;;6.58;100.00;100994.25;4973277;28;20054;-82
2023/12/20 09:15:25;;;;;;;21.27;6.25;;;;;;;6.59;100.00;100982.91;4961994;29;20062;-82
2023/12/20 09:17:52;;;;;;;24.23;7.18;;;;;;;6.59;100.00;100982.91;4981586;28;20047;-81
2023/12/20 09:20:18;;;;;;;23.15;6.57;;;;;;;6.61;100.00;100983.59;4979076;28;20526;-82
2023/12/20 09:22:45;;;;;;;19.38;6.28;;;;;;;6.73;100.00;100969.59;4973213;28;20055;-82
2023/12/20 09:25:12;;;;;;;19.27;5.90;;;;;;;6.69;100.00;100957.78;4960347;28;20169;-82
2023/12/20 09:27:39;;;;;;;24.27;6.10;;;;;;;6.70;100.00;100962.03;4966364;28;20117;-82
2023/12/20 09:30:08;;;;;;;25.50;6.68;;;;;;;6.80;100.00;100952.56;4978964;28;20056;-81
2023/12/20 09:32:34;;;;;;;23.98;6.20;;;;;;;6.74;100.00;100954.81;4975371;28;20142;-81
2023/12/20 09:35:01;;;;;;;12.77;5.53;;;;;;;6.72;100.00;100960.16;4976836;28;20054;-81
2023/12/20 09:37:28;;;;;;;20.25;6.03;;;;;;;6.70;100.00;100950.81;4973785;28;20106;-82
2023/12/20 09:39:55;;;;;;;16.08;5.63;;;;;;;6.75;100.00;100959.91;4987614;28;20457;-81
2023/12/20 09:42:30;;;;;;;19.35;5.70;;;;;;;6.81;100.00;100969.81;4984241;28;20089;-81
2023/12/20 09:45:03;;;;;;;24.38;6.72;;;;;;;6.79;100.00;100969.13;4981296;28;20106;-81
2023/12/20 09:47:31;;;;;;;18.10;5.50;;;;;;;6.83;100.00;100959.28;4978868;28;20486;-82
2023/12/20 09:49:57;;;;;;;14.18;5.78;;;;;;;6.87;100.00;100965.91;4970899;28;20059;-81
2023/12/20 09:52:25;;;;;;;17.20;5.18;;;;;;;6.76;100.00;100971.97;4963927;28;20319;-81
2023/12/20 09:54:54;;;;;;;20.38;5.45;;;;;;;6.80;100.00;100955.16;4962333;28;20458;-82
2023/12/20 09:57:21;;;;;;;14.55;5.18;;;;;;;6.82;100.00;100966.28;4957952;28;20047;-82
2023/12/20 09:59:48;;;;;;;16.50;5.00;;;;;;;6.76;100.00;100974.56;4974175;28;20055;-83
2023/12/20 10:02:15;;;;;;;17.13;5.63;;;;;;;6.85;100.00;100963.44;4978392;28;20085;-79
2023/12/20 10:04:48;;;;;;;18.77;5.60;;;;;;;6.87;100.00;100969.31;4978397;28;20055;-80
2023/12/20 10:07:14;;;;;;;19.73;4.95;;;;;;;6.90;100.00;100963.06;4981059;28;20046;-81
2023/12/20 10:09:42;;;;;;;17.20;5.35;;;;;;;6.90;100.00;100961.28;4959059;28;20138;-81
2023/12/20 10:12:09;;;;;;;19.30;4.97;;;;;;;6.91;100.00;100962.09;4959410;28;20061;-81
2023/12/20 10:14:36;;;;;;;16.27;4.78;;;;;;;6.99;100.00;100960.53;4960371;28;20047;-81
2023/12/20 10:17:04;;;;;;;18.02;5.38;;;;;;;7.06;100.00;100962.63;4975141;28;20093;-80
2023/12/20 10:19:30;;;;;;;16.80;5.43;;;;;;;7.04;100.00;100959.34;4959902;28;20047;-81
2023/12/20 10:21:58;;;;;;;13.02;5.43;;;;;;;7.09;100.00;100963.19;4959805;28;20104;-80
2023/12/20 10:24:25;;;;;;;14.80;5.53;;;;;;;7.15;100.00;100960.09;4964334;28;20078;-82
2023/12/20 10:27:03;;;;;;;16.98;6.18;;;;;;;7.17;100.00;100959.97;4978181;28;20110;-82
2023/12/20 10:29:33;;;;;;;17.17;5.63;;;;;;;7.14;100.00;100960.22;4972973;28;20055;-82
2023/12/20 10:31:59;;;;;;;17.88;6.78;;;;;;;7.06;100.00;100941.81;4962699;28;20059;-81
2023/12/20 10:34:26;;;;;;;13.43;5.50;;;;;;;7.07;100.00;100939.09;4960299;28;20083;-82
2023/12/20 10:36:53;;;;;;;16.23;6.38;;;;;;;7.13;100.00;100942.94;4959051;28;20083;-82
2023/12/20 10:39:22;;;;;;;23.42;6.20;;;;;;;7.10;100.00;100930.19;4970567;28;20083;-81
2023/12/20 10:41:49;;;;;;;11.60;5.28;;;;;;;6.98;100.00;100927.66;4978783;28;20082;-82
2023/12/20 10:44:16;;;;;;;15.75;5.85;;;;;;;7.23;100.00;100926.44;4978344;28;20497;-83
2023/12/20 10:46:49;;;;;;;20.83;5.90;;;;;;;7.22;100.00;100916.16;4978874;28;20083;-81
2023/12/20 10:49:18;;;;;;;17.00;5.78;;;;;;;7.06;100.00;100913.19;4978561;28;20058;-83
2023/12/20 10:51:48;;;;;;;17.77;6.10;;;;;;;7.11;100.00;100918.81;4970946;28;20585;-82
2023/12/20 10:54:14;;;;;;;19.35;6.10;;;;;;;7.12;100.00;100910.06;4969973;28;20086;-82
2023/12/20 10:56:42;;;;;;;18.33;5.75;;;;;;;7.15;100.00;100904.63;4979359;28;20101;-82
2023/12/20 10:59:12;;;;;;;14.20;5.13;;;;;;;7.06;100.00;100916.63;4979525;28;20047;-83
2023/12/20 11:01:41;;;;;;;20.25;5.88;;;;;;;7.09;100.00;100931.16;4971635;28;20194;-82
2023/12/20 11:04:13;;;;;;;15.35;5.93;;;;;;;7.15;100.00;100913.25;4982190;28;20588;-82
2023/12/20 11:06:47;;;;;;;18.52;6.63;;;;;;;7.17;100.00;100910.50;4961791;28;20087;-82
2023/12/20 11:09:20;;;;;;;15.82;5.85;;;;;;;7.08;100.00;100914.72;4961758;28;20065;-82
2023/12/20 11:12:10;;;;;;;16.17;4.88;;;;;;;7.11;100.00;100908.41;4960136;28;20413;-81
2023/12/20 11:14:44;;;;;;;18.25;5.95;;;;;;;7.08;100.00;100912.13;4963560;28;20078;-81
2023/12/20 11:17:13;;;;;;;19.67;6.20;;;;;;;7.08;100.00;100929.50;4980619;28;20089;-82
2023/12/20 11:20:05;;;;;;;12.98;5.53;;;;;;;7.14;100.00;100909.00;4980845;28;20077;-81
2023/12/20 11:22:33;;;;;;;11.15;4.60;;;;;;;7.09;100.00;100921.56;4976543;28;20078;-81
2023/12/20 11:25:05;;;;;;;17.55;5.60;;;;;;;7.14;100.00;100914.19;4978193;28;20086;-81
2023/12/20 11:27:33;;;;;;;18.23;6.13;;;;;;;7.15;100.00;100912.41;4981482;28;20061;-81
2023/12/20 11:30:00;;;;;;;18.17;5.90;;;;;;;7.19;100.00;100900.81;4983707;28;20051;-80
2023/12/20 11:32:30;;;;;;;20.40;5.18;;;;;;;7.34;100.00;100894.31;4979320;28;20051;-82
2023/12/20 11:34:58;;;;;;;16.02;5.05;;;;;;;7.35;100.00;100895.16;4979826;28;20493;-82
2023/12/20 11:37:30;;;;;;;17.00;5.63;;;;;;;7.54;100.00;100885.66;4975169;28;20075;-82
2023/12/20 11:40:01;;;;;;;20.75;5.75;;;;;;;7.54;100.00;100895.25;4960763;28;20077;-80
2023/12/20 11:42:28;;;;;;;12.70;4.53;;;;;;;7.53;100.00;100886.63;4962649;28;20086;-81
2023/12/20 11:44:57;;;;;;;13.80;5.70;;;;;;;7.54;100.00;100896.09;4969636;28;20110;-81
2023/12/20 11:47:24;;;;;;;15.02;4.90;;;;;;;7.56;100.00;100883.72;4978549;28;20051;-82
2023/12/20 11:49:51;;;;;;;19.30;5.45;;;;;;;7.48;100.00;100885.38;4977897;28;20063;-82
2023/12/20 11:52:18;;;;;;;14.93;5.20;;;;;;;7.43;100.00;100893.56;4957012;28;20162;-81
2023/12/20 11:54:44;;;;;;;11.90;5.47;;;;;;;7.44;100.00;100886.56;4958446;28;20130;-82
2023/12/20 11:57:11;;;;;;;14.68;4.93;;;;;;;7.39;100.00;100891.34;4960038;28;20125;-81
2023/12/20 11:59:38;;;;;;;22.77;5.90;;;;;;;7.36;100.00;100882.00;4960574;28;20532;-82
2023/12/20 12:02:06;;;;;;;14.00;5.15;;;;;;;7.42;100.00;100889.31;4960731;28;20126;-82
2023/12/20 12:04:33;;;;;;;14.68;5.50;;;;;;;7.35;100.00;100872.56;4960858;28;20097;-81
2023/12/20 12:06:59;;;;;;;13.35;5.68;;;;;;;7.28;100.00;100889.63;4960296;28;20110;-82
2023/12/20 12:09:26;;;;;;;22.58;7.60;;;;;;;7.32;100.00;100878.00;4973358;28;20078;-81
2023/12/20 12:11:53;;;;;;;18.90;5.68;;;;;;;7.28;100.00;100874.00;4979959;28;20054;-82
2023/12/20 12:14:20;;;;;;;15.48;6.10;;;;;;;7.22;100.00;100870.16;4980389;28;20070;-82
2023/12/20 12:16:47;;;;;;;19.60;6.57;;;;;;;7.29;100.00;100860.88;4979698;28;20061;-81
2023/12/20 12:19:23;;;;;;;13.27;6.18;;;;;;;7.31;100.00;100860.75;4981205;28;20049;-82
2023/12/20 12:21:49;;;;;;;19.15;6.75;;;;;;;7.26;100.00;100861.13;4972219;28;20055;-82
2023/12/20 12:24:16;;;;;;;15.65;5.90;;;;;;;7.23;100.00;100857.97;4981004;28;20138;-82
2023/12/20 12:26:43;;;;;;;14.82;6.47;;;;;;;7.16;100.00;100855.03;4980436;28;20129;-81
2023/12/20 12:29:10;;;;;;;20.35;6.55;;;;;;;7.20;100.00;100863.41;4972710;28;20458;-82
2023/12/20 12:31:37;;;;;;;16.70;6.82;;;;;;;7.22;100.00;100861.50;4980516;28;20438;-81
2023/12/20 12:34:03;;;;;;;23.13;6.82;;;;;;;7.19;100.00;100860.00;4971874;28;20101;-82
2023/12/20 12:36:32;;;;;;;19.23;6.53;;;;;;;7.24;100.00;100854.41;4980298;28;20133;-81